Weather reports worldwide

Advertisment
S. Valentino Alla Muta, Italy (16008): temperature & dewpoint: 11.08.2018 22:00:00 - 17.08.2018 22:00:00 (CEST)S. Valentino Alla Muta, Italy (16008): wind speed: 11.08.2018 22:00:00 - 17.08.2018 22:00:00 (CEST)S. Valentino Alla Muta, Italy (16008): wind direction: 11.08.2018 22:00:00 - 17.08.2018 22:00:00 (CEST)S. Valentino Alla Muta, Italy (16008): visibility: 11.08.2018 22:00:00 - 17.08.2018 22:00:00 (CEST)
Date & Time tt [°C] td [°C] ff [km/h] ff [kn] dd vv [km]
17.08.2018 22:00:00 19,2 6,7 15 8 N 10
17.08.2018 21:00:00 19,6 5,7 13 7 N 10
17.08.2018 20:00:00 21,6 4,7 15 8 N 12
17.08.2018 19:00:00 23,0 3,5 11 6 NNW 15
17.08.2018 18:00:00 24,0 1,6 13 7 N 10
17.08.2018 17:00:00 23,4 0,5 15 8 N 18
17.08.2018 16:00:00 24,4 1,3 15 8 NNE 18
17.08.2018 15:00:00 25,4 0,8 13 7 N 18
17.08.2018 14:00:00 24,6 0,2 16 9 NNE 18
17.08.2018 13:00:00 23,6 2,4 15 8 N 15
17.08.2018 12:00:00 22,6 5,1 11 6 NNE 15
17.08.2018 11:00:00 17,4 11,2 11 6 N 10
17.08.2018 10:00:00 16,4 13,3 8 4 WNW 10
17.08.2018 09:00:00 13,8 13,8 0 0 N 20
17.08.2018 08:00:00 12,6 12,6 0 0 N 20
17.08.2018 07:00:00 13,0 12,5 0 0 N 16
17.08.2018 06:00:00 13,6 12,8 0 0 N 14
17.08.2018 05:00:00 14,0 11,4 0 0 N 12
17.08.2018 04:00:00 14,6 11,9 0 0 N 12
17.08.2018 03:00:00 15,0 12,3 8 4 SSE 12
17.08.2018 02:00:00 15,2 12,5 9 5 SSE 12
17.08.2018 01:00:00 15,4 11,6 11 6 SSE 12
17.08.2018 00:00:00 16,0 11,8 9 5 SSE 12
16.08.2018 23:00:00 16,6 11,1 13 7 SSE 12
16.08.2018 22:00:00 17,4 10,5 15 8 SE 12
16.08.2018 21:00:00 18,0 9,1 15 8 SE 12
16.08.2018 20:00:00 19,0 7,4 11 6 SE 20
16.08.2018 19:00:00 19,8 7,2 11 6 SSE 20
16.08.2018 18:00:00 20,2 7,6 11 6 S 20
16.08.2018 17:00:00 21,4 5,7 15 8 S 20
16.08.2018 16:00:00 21,4 4,5 13 7 S 20
16.08.2018 15:00:00 21,8 6,1 11 6 SSW 20
16.08.2018 14:00:00 20,8 7,8 11 6 S 20
16.08.2018 13:00:00 20,6 8,9 11 6 SSW 20
16.08.2018 12:00:00 19,4 9,0 9 5 S 20
16.08.2018 11:00:00 16,2 9,9 9 5 SSW 20
16.08.2018 10:00:00 14,4 10,6 8 4 N 20
16.08.2018 09:00:00 11,6 9,9 13 7 NNE 18
16.08.2018 08:00:00 10,6 10,0 11 6 NNE 15
16.08.2018 07:00:00 10,6 9,8 8 4 NNE 15
16.08.2018 06:00:00 11,0 10,2 5 3 N 15
16.08.2018 05:00:00 12,0 10,7 8 4 NNE 15
16.08.2018 04:00:00 12,2 10,6 8 4 NNE 15
16.08.2018 03:00:00 13,0 10,2 5 3 NNE 15
16.08.2018 02:00:00 13,4 10,0 8 4 NNE 15
16.08.2018 01:00:00 13,6 10,0 8 4 NNW 15
16.08.2018 00:00:00 14,4 10,8 13 7 NNE 15
15.08.2018 23:00:00 15,4 9,7 9 5 NNW 15
15.08.2018 22:00:00 16,2 8,7 11 6 NE 15
15.08.2018 21:00:00 16,6 7,8 13 7 NE 15
15.08.2018 20:00:00 18,4 4,2 13 7 NNE 15
15.08.2018 19:00:00 19,6 4,1 15 8 N 15
15.08.2018 18:00:00 21,8 2,5 16 9 N 15
15.08.2018 17:00:00 22,0 1,6 18 10 N 15
15.08.2018 16:00:00 22,6 2,1 13 7 NNE 15
15.08.2018 15:00:00 22,6 2,1 11 6 N 15
15.08.2018 14:00:00 21,4 3,1 13 7 NNE 15
15.08.2018 13:00:00 21,2 4,3 13 7 NNE 15
15.08.2018 12:00:00 20,0 5,6 18 10 NNE 20
15.08.2018 11:00:00 16,6 6,7 13 7 NNE 15
15.08.2018 10:00:00 13,4 10,0 11 6 NE 15
15.08.2018 09:00:00 12,8 10,4 11 6 NNE 20
15.08.2018 08:00:00 12,2 9,9 5 3 NNE 20
15.08.2018 07:00:00 18,0 16,2 11 6 ENE 16
15.08.2018 06:00:00 12,4 10,5 11 6 NNE 12
15.08.2018 05:00:00 12,6 9,1 9 5 N 12
15.08.2018 04:00:00 12,8 9,1 9 5 NNE 12
15.08.2018 03:00:00 13,2 9,1 8 4 NNE 12
15.08.2018 02:00:00 13,4 9,3 5 3 NNE 12
15.08.2018 01:00:00 13,4 9,3 8 4 NNE 12
15.08.2018 00:00:00 13,4 9,7 8 4 NNE 12
14.08.2018 23:00:00 13,6 9,8 5 3 NNE 12
14.08.2018 22:00:00 13,6 10,6 5 3 NNE 12
14.08.2018 21:00:00 14,0 11,2 15 8 NE 10
14.08.2018 20:00:00 15,4 9,1 9 5 NE 10
14.08.2018 19:00:00 16,0 10,3 9 5 NE 16
14.08.2018 18:00:00 16,6 10,5 11 6 NE 20
14.08.2018 17:00:00 18,2 8,7 15 8 N 20
14.08.2018 16:00:00 17,8 8,4 13 7 N 20
14.08.2018 15:00:00 17,2 8,4 11 6 NE 20
14.08.2018 14:00:00 19,8 11,6 15 8 NNE 20
14.08.2018 13:00:00 19,4 6,8 11 6 NNE 20
14.08.2018 12:00:00 17,8 9,9 8 4 NE 20
14.08.2018 11:00:00 16,6 9,3 11 6 NNE 20
14.08.2018 10:00:00 14,2 10,6 11 6 NE 20
14.08.2018 09:00:00 13,4 12,3 16 9 NNE 10
14.08.2018 08:00:00 13,0 12,2 15 8 N 10
14.08.2018 07:00:00 13,2 12,6 13 7 N 10
14.08.2018 06:00:00 13,2 12,6 13 7 NNE 10
14.08.2018 05:00:00 13,4 12,8 13 7 NNE 10
14.08.2018 04:00:00 13,4 12,8 13 7 NNE 10
14.08.2018 03:00:00 12,4 11,8 8 4 NNW 10
14.08.2018 02:00:00 12,6 12,0 8 4 N 10
14.08.2018 01:00:00 12,6 12,0 4 2 N 10
14.08.2018 00:00:00 13,4 12,6 8 4 NNE 10
13.08.2018 23:00:00 14,2 12,9 4 2 NNW 10
13.08.2018 22:00:00 14,4 13,3 11 6 NNE 10
13.08.2018 21:00:00 15,2 13,6 11 6 NNE 10
13.08.2018 20:00:00 16,6 11,3 8 4 SSW 10
13.08.2018 19:00:00 17,6 12,9 13 7 S 10
13.08.2018 18:00:00 18,6 10,7 15 8 S 10
13.08.2018 17:00:00 19,6 13,3 11 6 S 10
13.08.2018 16:00:00 20,0 13,7 15 8 SSW 10
13.08.2018 15:00:00 19,0 12,7 13 7 SSW 10
13.08.2018 14:00:00 20,6 12,6 21 11 S 10
13.08.2018 13:00:00 20,0 12,0 15 8 S 12
13.08.2018 12:00:00 18,6 12,6 21 11 S 12
13.08.2018 11:00:00 16,4 13,5 16 9 S 10
13.08.2018 10:00:00 15,0 13,4 16 9 S 12
13.08.2018 09:00:00 12,8 12,8 0 0 N 20
13.08.2018 08:00:00 11,8 11,5 0 0 N 20
13.08.2018 07:00:00 12,2 11,9 0 0 N 20
13.08.2018 06:00:00 13,6 13,4 0 0 N 14
13.08.2018 05:00:00 12,8 12,8 0 0 N 12
13.08.2018 04:00:00 13,2 12,9 0 0 N 12
13.08.2018 03:00:00 13,6 12,7 0 0 N 12
13.08.2018 02:00:00 14,4 13,1 0 0 N 12
13.08.2018 01:00:00 14,8 12,0 5 3 SSE 12
13.08.2018 00:00:00 15,2 13,0 5 3 S 12
12.08.2018 23:00:00 15,8 12,7 9 5 SSE 12
12.08.2018 22:00:00 17,0 13,0 9 5 SSE 10
12.08.2018 21:00:00 17,2 12,5 9 5 SSE 12
12.08.2018 20:00:00 17,8 12,7 9 5 S 12
12.08.2018 19:00:00 18,2 11,3 13 7 S 12
12.08.2018 18:00:00 18,8 11,6 13 7 S 16
12.08.2018 17:00:00 19,6 10,6 13 7 S 20
12.08.2018 16:00:00 20,2 10,6 16 9 S 20
12.08.2018 15:00:00 20,0 10,7 13 7 S 20
12.08.2018 14:00:00 18,8 10,9 15 8 S 20
12.08.2018 13:00:00 19,8 11,3 16 9 S 20
12.08.2018 12:00:00 18,8 10,9 13 7 S 20
12.08.2018 11:00:00 16,6 12,0 15 8 S 20
12.08.2018 10:00:00 15,4 11,0 13 7 SSE 20
12.08.2018 09:00:00 13,0 10,9 2 1 SSE 20
12.08.2018 08:00:00 11,8 9,9 4 2 N 20
12.08.2018 07:00:00 11,6 10,0 5 3 N 30
12.08.2018 06:00:00 11,8 10,2 8 4 NNE 20
12.08.2018 05:00:00 12,2 9,6 8 4 NNE 30
12.08.2018 04:00:00 12,4 9,8 8 4 NNE 30
12.08.2018 03:00:00 13,0 9,6 8 4 NNE 30
12.08.2018 02:00:00 13,2 9,5 5 3 NNE 30
12.08.2018 01:00:00 13,8 9,2 5 3 N 30
12.08.2018 00:00:00 14,6 9,6 8 4 N 30
11.08.2018 23:00:00 14,8 8,3 8 4 N 30
11.08.2018 22:00:00 16,0 6,7 4 2 N 30

tt = temperature
td = dewpoint
ff = wind speed
dd = wind direction
vv = visibility

Next stations